Terminal Aerodrome Forecast
Issued by NWS

Home | Current Version | Previous Version | Graphics & Text | Print | Product List | Glossary On
Versions: 1 2 3 4 5 6 7 8 9 10 11 12 13 14 15 16 17 18 19
000
FTUS43 KTOP 251500 AAB
TAFMHK
TAF AMD
KMHK 251535Z 2516/2612 05005KT 5SM BR OVC005
     FM251700 03012KT P6SM SCT020 OVC120
     FM252100 02014G23KT P6SM -RA SCT025 OVC050
     FM260400 35007KT P6SM SCT050 BKN100=

USA.gov is the U.S. government's official web portal to all federal, state and local government web resources and services.